SBI1055 UUDD-UWKD
Flight info
| Callsign | SBI1055 |
|---|---|
| Flight time | 1h 27m |
| Altitude | 35000 |
| Route | KOGOM L94 EKPIR M864 INKEB L94 UNORO T788 KOROM |
| Aircraft | A320/M-SDE3FGHIRWY/LB1 |
Departure
| Time | 2026-05-07 18:02 |
|---|---|
| Airport | Domodedovo International Airport (UUDD) |
Arrival
| Time | 2026-05-07 19:30 |
|---|---|
| Airport | Kazan International Airport (UWKD) |
| Time | Latitude | Longitude | Altitude | Speed | Heading |
|---|---|---|---|---|---|
| 2026-05-07 17:23 | 55.41263 | 37.90079 | 573 ft | 0 kts | 235° |
| 2026-05-07 17:49 | 55.41264 | 37.90083 | 573 ft | 2 kts | 235° |
| 2026-05-07 17:50 | 55.41280 | 37.90119 | 575 ft | 4 kts | 225° |
| 2026-05-07 17:50 | 55.41301 | 37.90148 | 574 ft | 4 kts | 202° |
| 2026-05-07 17:50 | 55.41323 | 37.90152 | 581 ft | 3 kts | 147° |
| 2026-05-07 17:50 | 55.41329 | 37.90145 | 578 ft | 1 kts | 144° |
| 2026-05-07 17:55 | 55.41328 | 37.90146 | 575 ft | 0 kts | 144° |
| 2026-05-07 17:55 | 55.41317 | 37.90159 | 577 ft | 5 kts | 144° |
| 2026-05-07 17:56 | 55.41263 | 37.90227 | 572 ft | 14 kts | 146° |
| 2026-05-07 17:56 | 55.41177 | 37.90305 | 571 ft | 15 kts | 179° |
| 2026-05-07 17:56 | 55.41116 | 37.90190 | 571 ft | 14 kts | 238° |
| 2026-05-07 17:56 | 55.41055 | 37.90027 | 568 ft | 18 kts | 235° |
| 2026-05-07 17:57 | 55.40983 | 37.89840 | 569 ft | 20 kts | 236° |
| 2026-05-07 17:57 | 55.40901 | 37.89632 | 570 ft | 18 kts | 236° |
| 2026-05-07 17:57 | 55.40834 | 37.89495 | 576 ft | 15 kts | 231° |
| 2026-05-07 17:57 | 55.40783 | 37.89315 | 572 ft | 18 kts | 261° |
| 2026-05-07 17:58 | 55.40831 | 37.89114 | 574 ft | 19 kts | 320° |
| 2026-05-07 17:58 | 55.40944 | 37.88978 | 576 ft | 20 kts | 326° |
| 2026-05-07 17:58 | 55.41068 | 37.88829 | 579 ft | 23 kts | 325° |
| 2026-05-07 17:58 | 55.41205 | 37.88664 | 580 ft | 25 kts | 326° |
| 2026-05-07 17:59 | 55.41353 | 37.88487 | 581 ft | 27 kts | 326° |
| 2026-05-07 17:59 | 55.41510 | 37.88298 | 581 ft | 28 kts | 326° |
| 2026-05-07 17:59 | 55.41677 | 37.88098 | 582 ft | 30 kts | 325° |
| 2026-05-07 17:59 | 55.41828 | 37.87916 | 587 ft | 26 kts | 326° |
| 2026-05-07 18:00 | 55.41973 | 37.87742 | 594 ft | 25 kts | 326° |
| 2026-05-07 18:00 | 55.42102 | 37.87587 | 599 ft | 16 kts | 326° |
| 2026-05-07 18:00 | 55.42177 | 37.87462 | 598 ft | 11 kts | 283° |
| 2026-05-07 18:00 | 55.42158 | 37.87366 | 597 ft | 10 kts | 233° |
| 2026-05-07 18:01 | 55.42110 | 37.87253 | 595 ft | 10 kts | 233° |
| 2026-05-07 18:01 | 55.42068 | 37.87264 | 595 ft | 6 kts | 147° |
| 2026-05-07 18:01 | 55.42028 | 37.87313 | 596 ft | 8 kts | 146° |
| 2026-05-07 18:01 | 55.41964 | 37.87391 | 595 ft | 22 kts | 145° |
| 2026-05-07 18:02 | 55.40858 | 37.88719 | 576 ft | 158 kts | 146° |
| 2026-05-07 18:02 | 55.39913 | 37.89845 | 1083 ft | 162 kts | 146° |
| 2026-05-07 18:02 | 55.38966 | 37.90973 | 1706 ft | 166 kts | 147° |
| 2026-05-07 18:03 | 55.37918 | 37.91927 | 2158 ft | 178 kts | 164° |
| 2026-05-07 18:03 | 55.36660 | 37.92625 | 2441 ft | 201 kts | 164° |
| 2026-05-07 18:03 | 55.35246 | 37.93404 | 2705 ft | 225 kts | 164° |
| 2026-05-07 18:03 | 55.33675 | 37.94271 | 3150 ft | 244 kts | 164° |
| 2026-05-07 18:04 | 55.32031 | 37.95271 | 3729 ft | 262 kts | 154° |
| 2026-05-07 18:04 | 55.30657 | 37.97486 | 4370 ft | 278 kts | 122° |
| 2026-05-07 18:04 | 55.30085 | 38.00763 | 5160 ft | 289 kts | 92° |
| 2026-05-07 18:04 | 55.30557 | 38.04193 | 5903 ft | 296 kts | 58° |
| 2026-05-07 18:05 | 55.31931 | 38.06899 | 6611 ft | 301 kts | 39° |
| 2026-05-07 18:05 | 55.33523 | 38.09315 | 7418 ft | 305 kts | 37° |
| 2026-05-07 18:05 | 55.35164 | 38.11715 | 8212 ft | 310 kts | 37° |
| 2026-05-07 18:05 | 55.36839 | 38.14149 | 8998 ft | 315 kts | 37° |
| 2026-05-07 18:06 | 55.38538 | 38.16632 | 9762 ft | 320 kts | 37° |
| 2026-05-07 18:06 | 55.40262 | 38.19176 | 10391 ft | 330 kts | 38° |
| 2026-05-07 18:06 | 55.42066 | 38.21860 | 10786 ft | 346 kts | 38° |
| 2026-05-07 18:06 | 55.43918 | 38.24636 | 11492 ft | 351 kts | 38° |
| 2026-05-07 18:07 | 55.45782 | 38.27448 | 12245 ft | 355 kts | 38° |
| 2026-05-07 18:07 | 55.47665 | 38.30299 | 13015 ft | 359 kts | 38° |
| 2026-05-07 18:07 | 55.49573 | 38.33191 | 13671 ft | 364 kts | 38° |
| 2026-05-07 18:07 | 55.51492 | 38.36100 | 13847 ft | 364 kts | 38° |
| 2026-05-07 18:08 | 55.53408 | 38.39005 | 13879 ft | 363 kts | 38° |
| 2026-05-07 18:08 | 55.55324 | 38.41905 | 13891 ft | 362 kts | 38° |
| 2026-05-07 18:08 | 55.57160 | 38.44975 | 13880 ft | 364 kts | 47° |
| 2026-05-07 18:08 | 55.58653 | 38.48626 | 14104 ft | 369 kts | 59° |
| 2026-05-07 18:09 | 55.59932 | 38.52567 | 14827 ft | 370 kts | 59° |
| 2026-05-07 18:09 | 55.61232 | 38.56511 | 15509 ft | 373 kts | 59° |
| 2026-05-07 18:09 | 55.62547 | 38.60467 | 15799 ft | 372 kts | 58° |
| 2026-05-07 18:09 | 55.63864 | 38.64413 | 16050 ft | 373 kts | 58° |
| 2026-05-07 18:10 | 55.65183 | 38.68367 | 16679 ft | 375 kts | 58° |
| 2026-05-07 18:10 | 55.66506 | 38.72353 | 16853 ft | 376 kts | 58° |
| 2026-05-07 18:10 | 55.67988 | 38.76172 | 17319 ft | 377 kts | 51° |
| 2026-05-07 18:10 | 55.69597 | 38.79876 | 18002 ft | 379 kts | 51° |
| 2026-05-07 18:11 | 55.71197 | 38.83537 | 18577 ft | 382 kts | 51° |
| 2026-05-07 18:11 | 55.72307 | 38.86068 | 18949 ft | 384 kts | 50° |
| 2026-05-07 18:11 | 55.74491 | 38.91051 | 19697 ft | 388 kts | 50° |
| 2026-05-07 18:11 | 55.76151 | 38.94848 | 20249 ft | 391 kts | 50° |
| 2026-05-07 18:12 | 55.77822 | 38.98675 | 20740 ft | 394 kts | 50° |
| 2026-05-07 18:12 | 55.79504 | 39.02533 | 20868 ft | 395 kts | 50° |
| 2026-05-07 18:12 | 55.81185 | 39.06406 | 20888 ft | 394 kts | 51° |
| 2026-05-07 18:12 | 55.82855 | 39.10273 | 20887 ft | 394 kts | 51° |
| 2026-05-07 18:13 | 55.84505 | 39.14173 | 20890 ft | 395 kts | 54° |
| 2026-05-07 18:13 | 55.85871 | 39.18461 | 20912 ft | 406 kts | 63° |
| 2026-05-07 18:13 | 55.87144 | 39.23044 | 21048 ft | 421 kts | 63° |
| 2026-05-07 18:13 | 55.88463 | 39.27768 | 21379 ft | 429 kts | 63° |
| 2026-05-07 18:14 | 55.89803 | 39.32558 | 21862 ft | 433 kts | 62° |
| 2026-05-07 18:14 | 55.91151 | 39.37384 | 22363 ft | 437 kts | 62° |
| 2026-05-07 18:14 | 55.92507 | 39.42255 | 22866 ft | 440 kts | 63° |
| 2026-05-07 18:14 | 55.93598 | 39.47365 | 23341 ft | 444 kts | 77° |
| 2026-05-07 18:15 | 55.94024 | 39.52833 | 23763 ft | 447 kts | 84° |
| 2026-05-07 18:15 | 55.94335 | 39.58365 | 24178 ft | 449 kts | 84° |
| 2026-05-07 18:15 | 55.94632 | 39.63930 | 24588 ft | 451 kts | 85° |
| 2026-05-07 18:15 | 55.94921 | 39.69525 | 25003 ft | 453 kts | 85° |
| 2026-05-07 18:16 | 55.95208 | 39.75131 | 25381 ft | 456 kts | 85° |
| 2026-05-07 18:16 | 55.95498 | 39.80792 | 25763 ft | 458 kts | 85° |
| 2026-05-07 18:16 | 55.95786 | 39.86395 | 26137 ft | 460 kts | 85° |
| 2026-05-07 18:16 | 55.96079 | 39.92086 | 26504 ft | 462 kts | 85° |
| 2026-05-07 18:17 | 55.96372 | 39.97791 | 26908 ft | 463 kts | 85° |
| 2026-05-07 18:17 | 55.96667 | 40.03524 | 27284 ft | 464 kts | 85° |
| 2026-05-07 18:17 | 55.96961 | 40.09278 | 27643 ft | 466 kts | 85° |
| 2026-05-07 18:17 | 55.97252 | 40.15065 | 27988 ft | 468 kts | 85° |
| 2026-05-07 18:18 | 55.97539 | 40.20861 | 28322 ft | 470 kts | 85° |
| 2026-05-07 18:18 | 55.97824 | 40.26698 | 28649 ft | 472 kts | 85° |
| 2026-05-07 18:18 | 55.98103 | 40.32540 | 28964 ft | 474 kts | 85° |
| 2026-05-07 18:18 | 55.98380 | 40.38415 | 29267 ft | 475 kts | 85° |
| 2026-05-07 18:19 | 55.98659 | 40.44313 | 29565 ft | 477 kts | 85° |
| 2026-05-07 18:19 | 55.98936 | 40.50222 | 29844 ft | 479 kts | 85° |
| 2026-05-07 18:19 | 55.99215 | 40.56187 | 30046 ft | 482 kts | 85° |
| 2026-05-07 18:19 | 55.99495 | 40.62158 | 30270 ft | 484 kts | 85° |
| 2026-05-07 18:20 | 55.99770 | 40.68153 | 30587 ft | 483 kts | 85° |
| 2026-05-07 18:20 | 56.00040 | 40.74136 | 30912 ft | 481 kts | 85° |
| 2026-05-07 18:20 | 56.00301 | 40.80072 | 31291 ft | 479 kts | 85° |
| 2026-05-07 18:20 | 56.00554 | 40.86019 | 31640 ft | 477 kts | 85° |
| 2026-05-07 18:21 | 56.00804 | 40.91926 | 31968 ft | 476 kts | 85° |
| 2026-05-07 18:21 | 56.01059 | 40.97813 | 32289 ft | 475 kts | 85° |
| 2026-05-07 18:21 | 56.01308 | 41.03617 | 32602 ft | 474 kts | 85° |
| 2026-05-07 18:21 | 56.01565 | 41.09555 | 32927 ft | 473 kts | 85° |
| 2026-05-07 18:22 | 56.01809 | 41.15350 | 33233 ft | 473 kts | 85° |
| 2026-05-07 18:22 | 56.01970 | 41.19315 | 33442 ft | 472 kts | 85° |
| 2026-05-07 18:22 | 56.02283 | 41.27066 | 33862 ft | 471 kts | 85° |
| 2026-05-07 18:22 | 56.02522 | 41.32912 | 34134 ft | 470 kts | 85° |
| 2026-05-07 18:23 | 56.02754 | 41.38749 | 34384 ft | 470 kts | 86° |
| 2026-05-07 18:23 | 56.02978 | 41.44585 | 34629 ft | 470 kts | 86° |
| 2026-05-07 18:23 | 56.03201 | 41.50439 | 34843 ft | 471 kts | 86° |
| 2026-05-07 18:24 | 56.03641 | 41.62106 | 34909 ft | 469 kts | 86° |
| 2026-05-07 18:24 | 56.04080 | 41.73726 | 34907 ft | 468 kts | 86° |
| 2026-05-07 18:25 | 56.04497 | 41.85348 | 34909 ft | 468 kts | 86° |
| 2026-05-07 18:25 | 56.04913 | 41.96955 | 34910 ft | 468 kts | 86° |
| 2026-05-07 18:26 | 56.05306 | 42.08510 | 34921 ft | 468 kts | 86° |
| 2026-05-07 18:26 | 56.05698 | 42.20126 | 34913 ft | 468 kts | 86° |
| 2026-05-07 18:27 | 56.06065 | 42.31764 | 34906 ft | 468 kts | 86° |
| 2026-05-07 18:27 | 56.06429 | 42.43390 | 34900 ft | 468 kts | 86° |
| 2026-05-07 18:28 | 56.06778 | 42.55034 | 34909 ft | 467 kts | 87° |
| 2026-05-07 18:28 | 56.07122 | 42.66639 | 34911 ft | 467 kts | 86° |
| 2026-05-07 18:29 | 56.07469 | 42.78237 | 34911 ft | 467 kts | 87° |
| 2026-05-07 18:29 | 56.07786 | 42.89859 | 34914 ft | 466 kts | 87° |
| 2026-05-07 18:30 | 56.08083 | 43.01464 | 34906 ft | 466 kts | 87° |
| 2026-05-07 18:30 | 56.08378 | 43.13070 | 34902 ft | 466 kts | 87° |
| 2026-05-07 18:31 | 56.08675 | 43.24599 | 34899 ft | 466 kts | 87° |
| 2026-05-07 18:31 | 56.08950 | 43.36198 | 34896 ft | 466 kts | 88° |
| 2026-05-07 18:32 | 56.09212 | 43.47804 | 34893 ft | 466 kts | 88° |
| 2026-05-07 18:32 | 56.09457 | 43.59406 | 34890 ft | 466 kts | 88° |
| 2026-05-07 18:33 | 56.09712 | 43.71019 | 34894 ft | 467 kts | 88° |
| 2026-05-07 18:33 | 56.09951 | 43.82638 | 34891 ft | 467 kts | 88° |
| 2026-05-07 18:34 | 56.10132 | 43.92318 | 34890 ft | 467 kts | 88° |
| 2026-05-07 18:34 | 56.10334 | 44.03949 | 34888 ft | 467 kts | 88° |
| 2026-05-07 18:35 | 56.10566 | 44.17466 | 34901 ft | 467 kts | 88° |
| 2026-05-07 18:35 | 56.10731 | 44.27201 | 34905 ft | 466 kts | 88° |
| 2026-05-07 18:36 | 56.10914 | 44.38822 | 34912 ft | 466 kts | 88° |
| 2026-05-07 18:36 | 56.11091 | 44.50382 | 34915 ft | 467 kts | 88° |
| 2026-05-07 18:37 | 56.11249 | 44.62028 | 34910 ft | 468 kts | 89° |
| 2026-05-07 18:37 | 56.11263 | 44.73680 | 34915 ft | 468 kts | 91° |
| 2026-05-07 18:38 | 56.10985 | 44.85329 | 34908 ft | 468 kts | 93° |
| 2026-05-07 18:38 | 56.10641 | 44.96959 | 34919 ft | 468 kts | 93° |
| 2026-05-07 18:39 | 56.10366 | 45.08633 | 34922 ft | 468 kts | 92° |
| 2026-05-07 18:39 | 56.10106 | 45.20283 | 34924 ft | 468 kts | 92° |
| 2026-05-07 18:40 | 56.09840 | 45.31927 | 34930 ft | 467 kts | 92° |
| 2026-05-07 18:40 | 56.09552 | 45.43584 | 34929 ft | 467 kts | 92° |
| 2026-05-07 18:41 | 56.09256 | 45.55215 | 34929 ft | 467 kts | 93° |
| 2026-05-07 18:41 | 56.08945 | 45.66834 | 34934 ft | 467 kts | 93° |
| 2026-05-07 18:42 | 56.08619 | 45.78369 | 34941 ft | 467 kts | 93° |
| 2026-05-07 18:42 | 56.08289 | 45.89986 | 34947 ft | 466 kts | 93° |
| 2026-05-07 18:43 | 56.07947 | 46.01582 | 34808 ft | 465 kts | 93° |
| 2026-05-07 18:43 | 56.07772 | 46.07351 | 34203 ft | 464 kts | 93° |
| 2026-05-07 18:43 | 56.07596 | 46.13124 | 33494 ft | 465 kts | 93° |
| 2026-05-07 18:43 | 56.07418 | 46.18893 | 33043 ft | 464 kts | 93° |
| 2026-05-07 18:44 | 56.07237 | 46.24684 | 32898 ft | 466 kts | 93° |
| 2026-05-07 18:44 | 56.06860 | 46.36297 | 32926 ft | 467 kts | 93° |
| 2026-05-07 18:45 | 56.06439 | 46.47907 | 32945 ft | 467 kts | 97° |
| 2026-05-07 18:45 | 56.04807 | 46.59027 | 32954 ft | 465 kts | 111° |
| 2026-05-07 18:46 | 56.02492 | 46.69863 | 32952 ft | 466 kts | 111° |
| 2026-05-07 18:46 | 56.00171 | 46.80680 | 32959 ft | 466 kts | 111° |
| 2026-05-07 18:47 | 55.97838 | 46.91485 | 32965 ft | 466 kts | 112° |
| 2026-05-07 18:47 | 55.95504 | 47.02262 | 32962 ft | 465 kts | 111° |
| 2026-05-07 18:48 | 55.93161 | 47.13007 | 32979 ft | 465 kts | 112° |
| 2026-05-07 18:48 | 55.90803 | 47.23751 | 32970 ft | 465 kts | 112° |
| 2026-05-07 18:49 | 55.88445 | 47.34498 | 32965 ft | 466 kts | 112° |
| 2026-05-07 18:49 | 55.86072 | 47.45231 | 32977 ft | 466 kts | 112° |
| 2026-05-07 18:50 | 55.83703 | 47.55852 | 32974 ft | 463 kts | 112° |
| 2026-05-07 18:50 | 55.81324 | 47.66483 | 32970 ft | 462 kts | 112° |
| 2026-05-07 18:51 | 55.78985 | 47.76873 | 32975 ft | 437 kts | 112° |
| 2026-05-07 18:51 | 55.77890 | 47.81810 | 32974 ft | 422 kts | 108° |
| 2026-05-07 18:51 | 55.77379 | 47.86811 | 32970 ft | 405 kts | 89° |
| 2026-05-07 18:51 | 55.77721 | 47.91664 | 32978 ft | 391 kts | 72° |
| 2026-05-07 18:52 | 55.78724 | 47.96108 | 32973 ft | 386 kts | 58° |
| 2026-05-07 18:52 | 55.80279 | 47.99954 | 32971 ft | 382 kts | 44° |
| 2026-05-07 18:52 | 55.82291 | 48.02989 | 32971 ft | 378 kts | 29° |
| 2026-05-07 18:52 | 55.84639 | 48.05035 | 32973 ft | 375 kts | 15° |
| 2026-05-07 18:53 | 55.87135 | 48.05986 | 32969 ft | 371 kts | 1° |
| 2026-05-07 18:53 | 55.89697 | 48.05830 | 32970 ft | 367 kts | 347° |
| 2026-05-07 18:53 | 55.92141 | 48.04588 | 32969 ft | 364 kts | 334° |
| 2026-05-07 18:53 | 55.94331 | 48.02352 | 32972 ft | 361 kts | 320° |
| 2026-05-07 18:54 | 55.96144 | 47.99280 | 32972 ft | 359 kts | 307° |
| 2026-05-07 18:54 | 55.97503 | 47.95548 | 32969 ft | 358 kts | 295° |
| 2026-05-07 18:54 | 55.98530 | 47.91505 | 32754 ft | 357 kts | 291° |
| 2026-05-07 18:54 | 55.99397 | 47.87366 | 32352 ft | 354 kts | 288° |
| 2026-05-07 18:55 | 56.00167 | 47.83212 | 31963 ft | 351 kts | 287° |
| 2026-05-07 18:55 | 56.00897 | 47.79075 | 31677 ft | 347 kts | 287° |
| 2026-05-07 18:55 | 56.01623 | 47.74980 | 31349 ft | 343 kts | 287° |
| 2026-05-07 18:55 | 56.02356 | 47.70933 | 30958 ft | 341 kts | 287° |
| 2026-05-07 18:56 | 56.03103 | 47.66908 | 30565 ft | 340 kts | 288° |
| 2026-05-07 18:56 | 56.03859 | 47.62921 | 30198 ft | 338 kts | 287° |
| 2026-05-07 18:56 | 56.04364 | 47.58830 | 29810 ft | 335 kts | 275° |
| 2026-05-07 18:56 | 56.04356 | 47.54697 | 29393 ft | 332 kts | 262° |
| 2026-05-07 18:57 | 56.03828 | 47.50692 | 28987 ft | 330 kts | 250° |
| 2026-05-07 18:57 | 56.02833 | 47.47051 | 28588 ft | 329 kts | 238° |
| 2026-05-07 18:57 | 56.01408 | 47.43846 | 28189 ft | 329 kts | 226° |
| 2026-05-07 18:57 | 55.99637 | 47.41261 | 27793 ft | 330 kts | 214° |
| 2026-05-07 18:58 | 55.97592 | 47.39408 | 27402 ft | 330 kts | 202° |
| 2026-05-07 18:58 | 55.95367 | 47.38388 | 27021 ft | 332 kts | 189° |
| 2026-05-07 18:58 | 55.93055 | 47.38261 | 26639 ft | 333 kts | 177° |
| 2026-05-07 18:58 | 55.90781 | 47.39036 | 26262 ft | 334 kts | 164° |
| 2026-05-07 18:59 | 55.88643 | 47.40685 | 25894 ft | 335 kts | 151° |
| 2026-05-07 18:59 | 55.86756 | 47.43132 | 25527 ft | 336 kts | 138° |
| 2026-05-07 18:59 | 55.85217 | 47.46256 | 25170 ft | 336 kts | 125° |
| 2026-05-07 18:59 | 55.84103 | 47.49906 | 24813 ft | 335 kts | 111° |
| 2026-05-07 19:00 | 55.83346 | 47.53812 | 24466 ft | 333 kts | 109° |
| 2026-05-07 19:00 | 55.82600 | 47.57712 | 24121 ft | 332 kts | 109° |
| 2026-05-07 19:00 | 55.81853 | 47.61583 | 23796 ft | 330 kts | 109° |
| 2026-05-07 19:00 | 55.81107 | 47.65426 | 23448 ft | 328 kts | 109° |
| 2026-05-07 19:01 | 55.80361 | 47.69253 | 23072 ft | 326 kts | 110° |
| 2026-05-07 19:01 | 55.79618 | 47.73034 | 22947 ft | 323 kts | 110° |
| 2026-05-07 19:01 | 55.78874 | 47.76818 | 22967 ft | 325 kts | 110° |
| 2026-05-07 19:01 | 55.78134 | 47.80608 | 22967 ft | 325 kts | 109° |
| 2026-05-07 19:02 | 55.77721 | 47.84535 | 22971 ft | 324 kts | 88° |
| 2026-05-07 19:02 | 55.78129 | 47.88446 | 22969 ft | 322 kts | 65° |
| 2026-05-07 19:02 | 55.79294 | 47.91789 | 22969 ft | 318 kts | 43° |
| 2026-05-07 19:02 | 55.81032 | 47.94140 | 22969 ft | 312 kts | 22° |
| 2026-05-07 19:03 | 55.83056 | 47.95227 | 22972 ft | 307 kts | 1° |
| 2026-05-07 19:03 | 55.85155 | 47.95008 | 22969 ft | 301 kts | 342° |
| 2026-05-07 19:03 | 55.87062 | 47.93553 | 22970 ft | 297 kts | 322° |
| 2026-05-07 19:03 | 55.88557 | 47.91082 | 22969 ft | 293 kts | 304° |
| 2026-05-07 19:04 | 55.89530 | 47.87909 | 22968 ft | 292 kts | 291° |
| 2026-05-07 19:04 | 55.90269 | 47.84526 | 22968 ft | 293 kts | 289° |
| 2026-05-07 19:04 | 55.90933 | 47.81093 | 22967 ft | 293 kts | 288° |
| 2026-05-07 19:04 | 55.91571 | 47.77643 | 22966 ft | 293 kts | 287° |
| 2026-05-07 19:05 | 55.92204 | 47.74194 | 22967 ft | 293 kts | 288° |
| 2026-05-07 19:05 | 55.92845 | 47.70744 | 22967 ft | 293 kts | 288° |
| 2026-05-07 19:05 | 55.93495 | 47.67294 | 22979 ft | 293 kts | 288° |
| 2026-05-07 19:05 | 55.94097 | 47.63826 | 22969 ft | 292 kts | 279° |
| 2026-05-07 19:06 | 55.94160 | 47.60224 | 22966 ft | 292 kts | 261° |
| 2026-05-07 19:06 | 55.92304 | 47.53881 | 22973 ft | 298 kts | 224° |
| 2026-05-07 19:06 | 55.90559 | 47.51863 | 22963 ft | 303 kts | 204° |
| 2026-05-07 19:07 | 55.88498 | 47.51015 | 22968 ft | 308 kts | 184° |
| 2026-05-07 19:07 | 55.86361 | 47.51502 | 22975 ft | 314 kts | 163° |
| 2026-05-07 19:07 | 55.84429 | 47.53334 | 22971 ft | 318 kts | 141° |
| 2026-05-07 19:07 | 55.82975 | 47.56304 | 22968 ft | 322 kts | 120° |
| 2026-05-07 19:08 | 55.82163 | 47.60009 | 22970 ft | 323 kts | 106° |
| 2026-05-07 19:08 | 55.81493 | 47.63831 | 22967 ft | 324 kts | 109° |
| 2026-05-07 19:08 | 55.80772 | 47.67569 | 22968 ft | 324 kts | 110° |
| 2026-05-07 19:08 | 55.80000 | 47.71401 | 22967 ft | 324 kts | 110° |
| 2026-05-07 19:09 | 55.79243 | 47.75126 | 22970 ft | 325 kts | 110° |
| 2026-05-07 19:09 | 55.78482 | 47.78907 | 22969 ft | 325 kts | 110° |
| 2026-05-07 19:09 | 55.77813 | 47.82725 | 22968 ft | 324 kts | 98° |
| 2026-05-07 19:09 | 55.77788 | 47.86744 | 22981 ft | 333 kts | 84° |
| 2026-05-07 19:10 | 55.77709 | 47.90971 | 22971 ft | 354 kts | 103° |
| 2026-05-07 19:10 | 55.76748 | 47.95098 | 22973 ft | 372 kts | 125° |
| 2026-05-07 19:10 | 55.75112 | 47.98672 | 22959 ft | 366 kts | 133° |
| 2026-05-07 19:10 | 55.73421 | 48.01972 | 22814 ft | 356 kts | 134° |
| 2026-05-07 19:11 | 55.71747 | 48.05200 | 22137 ft | 360 kts | 134° |
| 2026-05-07 19:11 | 55.69999 | 48.08524 | 21113 ft | 375 kts | 134° |
| 2026-05-07 19:11 | 55.68200 | 48.11928 | 20267 ft | 387 kts | 134° |
| 2026-05-07 19:11 | 55.66353 | 48.15416 | 19706 ft | 388 kts | 134° |
| 2026-05-07 19:12 | 55.64511 | 48.18889 | 19252 ft | 386 kts | 134° |
| 2026-05-07 19:12 | 55.62681 | 48.22339 | 18809 ft | 384 kts | 134° |
| 2026-05-07 19:12 | 55.60860 | 48.25768 | 18382 ft | 381 kts | 134° |
| 2026-05-07 19:12 | 55.59048 | 48.29180 | 17907 ft | 379 kts | 134° |
| 2026-05-07 19:13 | 55.57246 | 48.32565 | 17430 ft | 377 kts | 134° |
| 2026-05-07 19:13 | 55.55456 | 48.35921 | 16978 ft | 374 kts | 134° |
| 2026-05-07 19:13 | 55.53676 | 48.39251 | 16520 ft | 372 kts | 134° |
| 2026-05-07 19:13 | 55.51910 | 48.42560 | 16086 ft | 369 kts | 131° |
| 2026-05-07 19:14 | 55.50567 | 48.46384 | 15944 ft | 367 kts | 109° |
| 2026-05-07 19:14 | 55.50088 | 48.50736 | 15971 ft | 364 kts | 88° |
| 2026-05-07 19:14 | 55.50517 | 48.55110 | 15972 ft | 363 kts | 67° |
| 2026-05-07 19:14 | 55.51800 | 48.58894 | 15971 ft | 359 kts | 45° |
| 2026-05-07 19:15 | 55.53753 | 48.61572 | 15975 ft | 355 kts | 24° |
| 2026-05-07 19:15 | 55.56093 | 48.62815 | 15964 ft | 351 kts | 6° |
| 2026-05-07 19:15 | 55.58504 | 48.63351 | 15565 ft | 348 kts | 4° |
| 2026-05-07 19:15 | 55.60907 | 48.63819 | 15137 ft | 346 kts | 4° |
| 2026-05-07 19:16 | 55.63240 | 48.64266 | 14936 ft | 333 kts | 4° |
| 2026-05-07 19:16 | 55.65469 | 48.64710 | 14803 ft | 311 kts | 4° |
| 2026-05-07 19:16 | 55.66888 | 48.64986 | 14723 ft | 296 kts | 1° |
| 2026-05-07 19:16 | 55.69452 | 48.64461 | 14520 ft | 270 kts | 345° |
| 2026-05-07 19:17 | 55.70675 | 48.63963 | 14274 ft | 265 kts | 344° |
| 2026-05-07 19:17 | 55.72431 | 48.63219 | 13845 ft | 261 kts | 344° |
| 2026-05-07 19:17 | 55.74186 | 48.62466 | 13336 ft | 258 kts | 344° |
| 2026-05-07 19:17 | 55.75920 | 48.61682 | 12810 ft | 255 kts | 339° |
| 2026-05-07 19:18 | 55.77383 | 48.60022 | 12288 ft | 249 kts | 309° |
| 2026-05-07 19:18 | 55.78152 | 48.57327 | 11735 ft | 247 kts | 280° |
| 2026-05-07 19:18 | 55.78037 | 48.54296 | 11163 ft | 250 kts | 251° |
| 2026-05-07 19:18 | 55.77056 | 48.51745 | 10582 ft | 255 kts | 220° |
| 2026-05-07 19:19 | 55.75462 | 48.50381 | 10034 ft | 259 kts | 190° |
| 2026-05-07 19:19 | 55.73675 | 48.50588 | 9425 ft | 260 kts | 159° |
| 2026-05-07 19:19 | 55.72179 | 48.52366 | 8988 ft | 260 kts | 128° |
| 2026-05-07 19:19 | 55.71390 | 48.55148 | 8618 ft | 256 kts | 98° |
| 2026-05-07 19:20 | 55.71479 | 48.58230 | 8239 ft | 250 kts | 67° |
| 2026-05-07 19:20 | 55.72420 | 48.60711 | 7980 ft | 241 kts | 35° |
| 2026-05-07 19:20 | 55.73945 | 48.61882 | 7967 ft | 240 kts | 3° |
| 2026-05-07 19:20 | 55.75579 | 48.61492 | 7970 ft | 239 kts | 339° |
| 2026-05-07 19:21 | 55.77140 | 48.60436 | 7960 ft | 241 kts | 344° |
| 2026-05-07 19:21 | 55.78802 | 48.60329 | 7777 ft | 241 kts | 12° |
| 2026-05-07 19:21 | 55.80299 | 48.61606 | 7299 ft | 242 kts | 39° |
| 2026-05-07 19:21 | 55.81288 | 48.64002 | 6769 ft | 243 kts | 69° |
| 2026-05-07 19:22 | 55.81538 | 48.66883 | 6496 ft | 232 kts | 95° |
| 2026-05-07 19:22 | 55.81100 | 48.69553 | 6075 ft | 227 kts | 119° |
| 2026-05-07 19:22 | 55.80325 | 48.72003 | 5583 ft | 227 kts | 120° |
| 2026-05-07 19:22 | 55.79552 | 48.74429 | 5135 ft | 225 kts | 120° |
| 2026-05-07 19:23 | 55.78782 | 48.76838 | 4693 ft | 222 kts | 120° |
| 2026-05-07 19:23 | 55.78023 | 48.79217 | 4251 ft | 220 kts | 121° |
| 2026-05-07 19:23 | 55.77280 | 48.81550 | 4044 ft | 212 kts | 121° |
| 2026-05-07 19:23 | 55.76536 | 48.83875 | 3993 ft | 216 kts | 121° |
| 2026-05-07 19:24 | 55.75795 | 48.86190 | 3759 ft | 215 kts | 121° |
| 2026-05-07 19:24 | 55.75056 | 48.88497 | 3481 ft | 214 kts | 121° |
| 2026-05-07 19:24 | 55.74322 | 48.90781 | 3217 ft | 212 kts | 121° |
| 2026-05-07 19:24 | 55.73604 | 48.93014 | 2950 ft | 210 kts | 120° |
| 2026-05-07 19:25 | 55.72885 | 48.95251 | 2746 ft | 207 kts | 121° |
| 2026-05-07 19:25 | 55.72169 | 48.97478 | 2683 ft | 207 kts | 120° |
| 2026-05-07 19:25 | 55.71457 | 48.99696 | 2704 ft | 207 kts | 120° |
| 2026-05-07 19:25 | 55.70710 | 49.01880 | 2691 ft | 206 kts | 124° |
| 2026-05-07 19:26 | 55.69923 | 49.03946 | 2694 ft | 199 kts | 127° |
| 2026-05-07 19:26 | 55.69113 | 49.05927 | 2706 ft | 198 kts | 126° |
| 2026-05-07 19:26 | 55.68347 | 49.07870 | 2618 ft | 187 kts | 126° |
| 2026-05-07 19:26 | 55.67628 | 49.09729 | 2392 ft | 177 kts | 126° |
| 2026-05-07 19:27 | 55.66961 | 49.11460 | 2192 ft | 161 kts | 125° |
| 2026-05-07 19:27 | 55.66362 | 49.13019 | 1982 ft | 146 kts | 125° |
| 2026-05-07 19:27 | 55.65802 | 49.14471 | 1797 ft | 141 kts | 125° |
| 2026-05-07 19:27 | 55.65256 | 49.15886 | 1612 ft | 138 kts | 125° |
| 2026-05-07 19:28 | 55.64717 | 49.17285 | 1429 ft | 137 kts | 125° |
| 2026-05-07 19:28 | 55.64175 | 49.18684 | 1249 ft | 138 kts | 125° |
| 2026-05-07 19:28 | 55.63627 | 49.20087 | 1054 ft | 139 kts | 124° |
| 2026-05-07 19:28 | 55.63078 | 49.21505 | 851 ft | 139 kts | 123° |
| 2026-05-07 19:29 | 55.62529 | 49.22932 | 687 ft | 141 kts | 123° |
| 2026-05-07 19:29 | 55.61980 | 49.24368 | 510 ft | 141 kts | 123° |
| 2026-05-07 19:29 | 55.61433 | 49.25787 | 416 ft | 132 kts | 123° |
| 2026-05-07 19:29 | 55.60991 | 49.26937 | 415 ft | 89 kts | 125° |
| 2026-05-07 19:30 | 55.60738 | 49.27587 | 418 ft | 40 kts | 124° |
| 2026-05-07 19:30 | 55.60584 | 49.27988 | 413 ft | 39 kts | 124° |
| 2026-05-07 19:30 | 55.60444 | 49.28351 | 415 ft | 28 kts | 125° |
| 2026-05-07 19:30 | 55.60389 | 49.28555 | 412 ft | 16 kts | 73° |
| 2026-05-07 19:31 | 55.60466 | 49.28667 | 416 ft | 0 kts | 34° |
| 2026-05-07 19:32 | 55.60469 | 49.28670 | 416 ft | 3 kts | 34° |
| 2026-05-07 19:33 | 55.60506 | 49.28715 | 416 ft | 10 kts | 34° |
| 2026-05-07 19:33 | 55.60575 | 49.28807 | 416 ft | 15 kts | 50° |
| 2026-05-07 19:33 | 55.60576 | 49.29013 | 416 ft | 18 kts | 95° |
| 2026-05-07 19:33 | 55.60639 | 49.29212 | 416 ft | 21 kts | 31° |
| 2026-05-07 19:34 | 55.60750 | 49.29350 | 416 ft | 18 kts | 34° |
| 2026-05-07 19:34 | 55.60815 | 49.29447 | 416 ft | 11 kts | 73° |
| 2026-05-07 19:34 | 55.60774 | 49.29581 | 411 ft | 15 kts | 124° |
| 2026-05-07 19:34 | 55.60725 | 49.29708 | 411 ft | 9 kts | 124° |
| 2026-05-07 19:35 | 55.60739 | 49.29798 | 411 ft | 6 kts | 34° |
| 2026-05-07 19:35 | 55.60769 | 49.29834 | 416 ft | 0 kts | 32° |
| 2026-05-07 19:35 | 55.60770 | 49.29835 | 416 ft | 0 kts | 32° |
| 2026-05-07 19:35 | 55.60765 | 49.29830 | 416 ft | 0 kts | 34° |